createdAt,value
2019-04-07T00:02:25.650Z,6.4
2019-04-07T00:07:32.225Z,6.4
2019-04-07T00:12:37.917Z,6.4
2019-04-07T00:17:44.299Z,6.5
2019-04-07T00:22:48.803Z,6.4
2019-04-07T00:27:55.618Z,6.3
2019-04-07T00:33:01.930Z,6.3
2019-04-07T00:38:06.412Z,6.3
2019-04-07T00:43:13.687Z,6.1
2019-04-07T00:48:18.837Z,6.1
2019-04-07T00:53:24.309Z,6.3
2019-04-07T00:58:30.189Z,6.2
2019-04-07T01:03:36.592Z,6.3
2019-04-07T01:08:47.834Z,6.4
2019-04-07T01:13:43.873Z,6.3
2019-04-07T01:18:50.206Z,6.2
2019-04-07T01:23:55.494Z,6.1
2019-04-07T01:29:01.433Z,6.2
2019-04-07T01:34:07.553Z,6.2
2019-04-07T01:39:14.088Z,6.2
2019-04-07T01:44:20.177Z,6.3
2019-04-07T01:49:27.281Z,6.2
2019-04-07T01:54:34.048Z,6.3
2019-04-07T01:59:40.837Z,6.3
2019-04-07T02:04:46.222Z,6.2
2019-04-07T02:09:52.297Z,6.3
2019-04-07T02:14:58.796Z,6.1
2019-04-07T02:20:06.755Z,6
2019-04-07T02:25:13.020Z,6
2019-04-07T02:30:21.691Z,6
2019-04-07T02:35:30.028Z,5.9
2019-04-07T02:40:36.444Z,5.9
2019-04-07T02:45:45.108Z,5.9
2019-04-07T02:50:52.656Z,5.9
2019-04-07T02:55:57.829Z,5.8
2019-04-07T03:01:05.681Z,5.7
2019-04-07T03:06:33.740Z,5.7
2019-04-07T03:11:12.055Z,5.6
2019-04-07T03:16:19.390Z,5.5
2019-04-07T03:21:27.935Z,5.4
2019-04-07T03:26:34.168Z,5.4
2019-04-07T03:31:43.868Z,5.3
2019-04-07T03:37:38.224Z,5.3
2019-04-07T03:41:51.233Z,5.3
2019-04-07T03:46:59.945Z,5.2
2019-04-07T03:52:08.106Z,5.2
2019-04-07T03:57:15.055Z,5.2
2019-04-07T04:02:21.701Z,5
2019-04-07T04:07:40.212Z,5
2019-04-07T04:12:38.681Z,5
2019-04-07T04:17:45.598Z,5
2019-04-07T04:22:52.490Z,4.9
2019-04-07T04:27:58.905Z,4.9
2019-04-07T04:33:06.184Z,4.8
2019-04-07T04:38:14.222Z,5
2019-04-07T04:43:20.805Z,5.3
2019-04-07T04:48:27.829Z,5.5
2019-04-07T04:53:34.693Z,5.6
2019-04-07T04:58:40.141Z,5.6
2019-04-07T05:03:46.109Z,5.8
2019-04-07T05:08:53.143Z,6.3
2019-04-07T05:14:00.314Z,6.6
2019-04-07T05:19:07.212Z,6.6
2019-04-07T05:24:12.579Z,6.9
2019-04-07T05:29:19.055Z,7.1
2019-04-07T05:34:24.641Z,7.1
2019-04-07T05:39:30.876Z,7.2
2019-04-07T05:44:38.562Z,7.7
2019-04-07T05:49:43.366Z,7.7
2019-04-07T05:54:52.559Z,8.8
2019-04-07T05:59:57.939Z,8.8
2019-04-07T06:05:04.276Z,10
2019-04-07T06:10:11.002Z,10.4
2019-04-07T06:15:23.316Z,10.9
2019-04-07T06:20:20.696Z,11.3
2019-04-07T06:25:27.303Z,11.6
2019-04-07T06:30:35.873Z,11.9
2019-04-07T06:35:31.225Z,11.9
2019-04-07T06:40:37.228Z,12.5
2019-04-07T06:45:46.421Z,13.8
2019-04-07T06:51:01.705Z,14.2
2019-04-07T06:56:05.172Z,14.4
2019-04-07T07:01:06.950Z,15
2019-04-07T07:06:03.598Z,14.9
2019-04-07T07:11:11.623Z,14.4
2019-04-07T07:16:17.368Z,14.3
2019-04-07T07:21:13.322Z,14.3
2019-04-07T07:26:23.334Z,14.1
2019-04-07T07:31:25.527Z,15
2019-04-07T07:41:30.075Z,16.9
2019-04-07T07:46:36.420Z,17.6
2019-04-07T07:51:48.695Z,18.8
2019-04-07T07:58:02.058Z,21.7
2019-04-07T08:02:58.216Z,21.8
2019-04-07T08:08:03.630Z,23.6
2019-04-07T08:13:10.249Z,22.7
2019-04-07T08:18:18.846Z,23.9
2019-04-07T08:23:16.614Z,24.9
2019-04-07T08:28:23.220Z,27.3
2019-04-07T08:33:32.207Z,28.6
2019-04-07T08:38:38.625Z,27.4
2019-04-07T08:43:45.168Z,27.3
2019-04-07T08:48:56.381Z,30.4
2019-04-07T08:54:04.229Z,30.4
2019-04-07T08:59:19.478Z,31
2019-04-07T09:04:19.639Z,30.2
2019-04-07T09:09:16.964Z,29.2
2019-04-07T09:14:24.740Z,28.8
2019-04-07T09:19:29.900Z,28.5
2019-04-07T09:24:35.941Z,28.4
2019-04-07T09:29:42.221Z,30.1
2019-04-07T09:34:56.114Z,31.6
2019-04-07T09:40:06.838Z,33.2
2019-04-07T09:45:13.818Z,31
2019-04-07T09:50:10.268Z,29.7
2019-04-07T09:55:15.706Z,29.6
2019-04-07T10:00:26.296Z,28.5
2019-04-07T10:05:21.887Z,28.4
2019-04-07T10:10:31.520Z,30.9
2019-04-07T10:15:29.642Z,31
2019-04-07T10:20:35.389Z,32
2019-04-07T10:25:42.282Z,30.3
2019-04-07T10:30:49.423Z,29.3
2019-04-07T10:35:54.964Z,29.5
2019-04-07T10:41:02.092Z,29.6
2019-04-07T10:46:08.901Z,31.7
2019-04-07T10:51:14.919Z,31.7
2019-04-07T10:56:21.994Z,26.8
2019-04-07T11:01:30.832Z,27.3
2019-04-07T11:06:38.160Z,29.5
2019-04-07T11:11:48.062Z,29.4
2019-04-07T11:16:45.324Z,27.3
2019-04-07T11:21:52.990Z,29
2019-04-07T11:26:59.385Z,30.5
2019-04-07T11:32:03.612Z,30.4
2019-04-07T11:37:12.825Z,28.5
2019-04-07T11:42:09.615Z,28.9
2019-04-07T11:47:15.403Z,29.1
2019-04-07T11:52:22.381Z,27.1
2019-04-07T11:57:29.047Z,28.4
2019-04-07T12:02:34.109Z,28.6
2019-04-07T12:07:40.237Z,29.6
2019-04-07T12:12:45.909Z,29.6
2019-04-07T12:17:53.530Z,30.6
2019-04-07T12:23:00.377Z,31.3
2019-04-07T12:28:06.592Z,30.9
2019-04-07T12:38:17.648Z,28.5
2019-04-07T12:43:24.945Z,27.6
2019-04-07T12:48:33.398Z,26.7
2019-04-07T12:53:37.832Z,24.9
2019-04-07T12:58:34.112Z,23.4
2019-04-07T13:03:42.497Z,23.2
2019-04-07T13:08:51.867Z,22.3
2019-04-07T13:13:51.680Z,22.3
2019-04-07T13:18:57.648Z,21.5
2019-04-07T13:24:28.084Z,21.5
2019-04-07T13:29:10.699Z,21.4
2019-04-07T13:34:17.990Z,21.4
2019-04-07T13:39:23.750Z,21.1
2019-04-07T13:44:31.965Z,21.1
2019-04-07T13:49:41.321Z,21.2
2019-04-07T13:54:47.129Z,21.2
2019-04-07T13:59:56.555Z,20.9
2019-04-07T14:04:57.153Z,20.7
2019-04-07T14:10:06.716Z,20.6
2019-04-07T14:15:11.443Z,20.7
2019-04-07T14:20:18.127Z,20.9
2019-04-07T14:25:24.598Z,20.7
2019-04-07T14:30:30.914Z,20.4
2019-04-07T14:35:38.804Z,20.5
2019-04-07T14:45:51.595Z,20.4
2019-04-07T14:50:59.032Z,20.5
2019-04-07T14:56:09.791Z,20.5
2019-04-07T15:01:09.564Z,20.4
2019-04-07T15:06:15.387Z,20.4
2019-04-07T15:11:21.169Z,20.4
2019-04-07T15:16:27.463Z,20.2
2019-04-07T15:21:34.852Z,20.3
2019-04-07T15:26:40.122Z,20.4
2019-04-07T15:31:51.876Z,20.4
2019-04-07T15:36:50.004Z,20.3
2019-04-07T15:41:47.809Z,20.2
2019-04-07T15:46:56.475Z,20.2
2019-04-07T15:52:09.947Z,20
2019-04-07T15:57:06.700Z,20
2019-04-07T16:02:15.006Z,19.8
2019-04-07T16:07:23.051Z,19.7
2019-04-07T16:12:29.818Z,19.6
2019-04-07T16:17:37.295Z,19.5
2019-04-07T16:22:47.883Z,19.3
2019-04-07T16:27:49.002Z,19.1
2019-04-07T16:32:54.834Z,19
2019-04-07T16:38:02.831Z,18.9
2019-04-07T16:43:18.657Z,18.7
2019-04-07T16:48:10.547Z,18.6
2019-04-07T16:53:10.721Z,18.4
2019-04-07T16:58:08.155Z,18.3
2019-04-07T17:03:07.631Z,18.3
2019-04-07T17:08:17.593Z,17.9
2019-04-07T17:13:41.344Z,17.6
2019-04-07T17:18:26.529Z,17.4
2019-04-07T17:23:26.155Z,17.1
2019-04-07T17:28:32.394Z,17.1
2019-04-07T17:33:41.232Z,16.7
2019-04-07T17:38:49.714Z,16.5
2019-04-07T17:44:02.356Z,16.3
2019-04-07T17:54:06.573Z,16.2
2019-04-07T17:59:18.763Z,16.1
2019-04-07T18:04:49.127Z,16
2019-04-07T18:09:29.858Z,15.8
2019-04-07T18:14:34.523Z,15.6
2019-04-07T18:19:51.629Z,15.5
2019-04-07T18:24:35.141Z,15.6
2019-04-07T18:29:53.886Z,15.4
2019-04-07T18:35:29.447Z,15.2
2019-04-07T18:40:05.204Z,15
2019-04-07T18:45:01.641Z,14.8
2019-04-07T18:50:13.771Z,14.7
2019-04-07T18:55:46.403Z,14.6
2019-04-07T19:05:20.094Z,14.4
2019-04-07T19:10:27.932Z,14.3
2019-04-07T19:15:21.243Z,14.2
2019-04-07T19:20:19.335Z,14
2019-04-07T19:25:25.831Z,14
2019-04-07T19:30:31.889Z,13.9
2019-04-07T19:35:43.359Z,13.8
2019-04-07T19:40:49.328Z,13.7
2019-04-07T19:45:46.923Z,13.6
2019-04-07T19:51:01.194Z,13.5
2019-04-07T19:56:04.550Z,13.4
2019-04-07T20:01:07.231Z,13.3
2019-04-07T20:06:09.066Z,13.2
2019-04-07T20:11:16.001Z,13.2
2019-04-07T20:16:21.918Z,13.1
2019-04-07T20:21:43.468Z,12.9
2019-04-07T20:26:36.962Z,12.9
2019-04-07T20:31:41.795Z,12.8
2019-04-07T20:36:48.011Z,12.8
2019-04-07T20:41:55.656Z,12.6
2019-04-07T20:47:04.547Z,12.5
2019-04-07T20:52:10.379Z,12.5
2019-04-07T20:57:26.366Z,12.3
2019-04-07T21:02:27.040Z,12.3
2019-04-07T21:07:33.393Z,12.2
2019-04-07T21:12:38.967Z,12.2
2019-04-07T21:17:43.057Z,12.3
2019-04-07T21:22:49.732Z,12.4
2019-04-07T21:27:56.018Z,12.5
2019-04-07T21:33:02.420Z,12.5
2019-04-07T21:38:08.089Z,12.5
2019-04-07T21:43:14.492Z,12.3
2019-04-07T21:53:33.533Z,12
2019-04-07T21:58:29.374Z,12
2019-04-07T22:03:35.241Z,11.9
2019-04-07T22:08:48.338Z,11.9
2019-04-07T22:13:45.891Z,11.8
2019-04-07T22:18:53.262Z,11.7
2019-04-07T22:24:01.274Z,11.6
2019-04-07T22:29:09.558Z,11.5
2019-04-07T22:34:18.353Z,11.5
2019-04-07T22:39:14.131Z,11.4
2019-04-07T22:44:24.466Z,11.3
2019-04-07T22:49:20.956Z,11.3
2019-04-07T22:54:32.805Z,11.3
2019-04-07T22:59:30.097Z,11.2
2019-04-07T23:04:37.326Z,11.2
2019-04-07T23:09:43.488Z,11.2
2019-04-07T23:14:50.710Z,11.1
2019-04-07T23:19:56.681Z,11.2
2019-04-07T23:25:03.587Z,11.1
2019-04-07T23:30:08.825Z,11.1
2019-04-07T23:35:14.520Z,11.1
2019-04-07T23:40:21.100Z,11
2019-04-07T23:45:28.550Z,10.9
2019-04-07T23:50:35.487Z,10.8
2019-04-07T23:55:42.179Z,10.8
